createdAt,value
2022-11-27T00:01:14.543Z,20.35
2022-11-27T00:03:41.983Z,18.95
2022-11-27T00:06:15.984Z,24.75
2022-11-27T00:08:44.023Z,23.52
2022-11-27T00:11:13.609Z,26.50
2022-11-27T00:13:40.747Z,24.73
2022-11-27T00:16:08.414Z,19.33
2022-11-27T00:18:36.282Z,21.88
2022-11-27T00:21:08.034Z,28.50
2022-11-27T00:23:36.732Z,20.20
2022-11-27T00:26:04.353Z,26.90
2022-11-27T00:28:33.134Z,24.30
2022-11-27T00:31:01.397Z,20.73
2022-11-27T00:33:28.791Z,25.17
2022-11-27T00:35:55.601Z,25.10
2022-11-27T00:38:22.487Z,26.15
2022-11-27T00:40:49.207Z,20.95
2022-11-27T00:43:15.814Z,25.58
2022-11-27T00:45:42.424Z,23.25
2022-11-27T00:48:09.242Z,23.58
2022-11-27T00:50:35.906Z,27.30
2022-11-27T00:53:02.495Z,19.65
2022-11-27T00:55:29.100Z,24.65
2022-11-27T00:57:55.743Z,23.58
2022-11-27T01:00:23.003Z,22.83
2022-11-27T01:02:49.689Z,23.33
2022-11-27T01:05:16.635Z,23.00
2022-11-27T01:07:43.314Z,19.35
2022-11-27T01:10:10.460Z,22.25
2022-11-27T01:12:37.057Z,20.13
2022-11-27T01:15:04.380Z,22.30
2022-11-27T01:17:30.989Z,21.35
2022-11-27T01:19:57.877Z,17.27
2022-11-27T01:22:24.539Z,21.23
2022-11-27T01:24:51.291Z,17.65
2022-11-27T01:27:17.970Z,27.90
2022-11-27T01:29:45.247Z,28.73
2022-11-27T01:32:11.896Z,25.85
2022-11-27T01:34:39.079Z,18.88
2022-11-27T01:41:31.021Z,26.50
2022-11-27T01:44:21.589Z,20.48
2022-11-27T01:47:05.364Z,18.23
2022-11-27T01:49:42.791Z,26.98
2022-11-27T01:52:22.255Z,20.05
2022-11-27T01:55:07.248Z,25.17
2022-11-27T01:57:49.751Z,22.42
2022-11-27T02:00:37.402Z,21.38
2022-11-27T02:03:07.292Z,20.23
2022-11-27T02:05:35.361Z,22.35
2022-11-27T02:08:09.980Z,18.75
2022-11-27T02:11:09.252Z,18.02
2022-11-27T02:18:16.928Z,21.45
2022-11-27T02:21:02.974Z,25.10
2022-11-27T02:23:54.039Z,17.58
2022-11-27T02:26:51.123Z,24.57
2022-11-27T02:29:22.567Z,24.30
2022-11-27T02:32:10.370Z,26.15
2022-11-27T02:34:54.839Z,22.65
2022-11-27T02:37:34.529Z,24.45
2022-11-27T02:40:16.857Z,19.15
2022-11-27T02:43:01.873Z,19.90
2022-11-27T02:45:33.875Z,29.00
2022-11-27T02:48:00.946Z,19.92
2022-11-27T02:50:30.654Z,21.63
2022-11-27T02:53:01.676Z,21.20
2022-11-27T02:55:32.425Z,18.23
2022-11-27T02:58:00.688Z,14.43
2022-11-27T03:00:28.778Z,15.98
2022-11-27T03:03:00.989Z,20.52
2022-11-27T03:05:32.705Z,15.48
2022-11-27T03:10:44.298Z,16.80
2022-11-27T03:13:11.378Z,15.48
2022-11-27T03:15:51.222Z,18.20
2022-11-27T03:18:43.748Z,19.98
2022-11-27T03:21:24.456Z,17.35
2022-11-27T03:23:51.648Z,18.83
2022-11-27T03:26:18.382Z,19.30
2022-11-27T03:28:46.702Z,21.25
2022-11-27T03:31:13.920Z,14.88
2022-11-27T03:33:40.638Z,25.35
2022-11-27T03:36:13.451Z,22.95
2022-11-27T03:38:40.636Z,18.10
2022-11-27T03:41:28.919Z,26.63
2022-11-27T03:44:07.873Z,23.30
2022-11-27T03:46:54.915Z,26.23
2022-11-27T03:49:41.874Z,21.80
2022-11-27T03:52:23.365Z,17.55
2022-11-27T03:55:01.266Z,19.50
2022-11-27T03:58:08.541Z,20.40
2022-11-27T04:00:39.559Z,23.85
2022-11-27T04:03:10.780Z,22.85
2022-11-27T04:05:37.750Z,19.10
2022-11-27T04:08:04.700Z,24.67
2022-11-27T04:10:31.404Z,26.50
2022-11-27T04:12:58.042Z,27.13
2022-11-27T04:15:24.685Z,20.92
2022-11-27T04:17:51.317Z,19.95
2022-11-27T04:20:18.079Z,16.55
2022-11-27T04:22:44.783Z,17.52
2022-11-27T04:25:11.567Z,21.50
2022-11-27T04:27:38.245Z,15.20
2022-11-27T04:30:05.436Z,18.48
2022-11-27T04:32:32.116Z,20.63
2022-11-27T04:34:58.853Z,16.65
2022-11-27T04:37:25.588Z,20.90
2022-11-27T04:39:52.266Z,24.50
2022-11-27T04:42:18.865Z,20.67
2022-11-27T04:44:45.467Z,19.30
2022-11-27T04:47:12.144Z,18.65
2022-11-27T04:49:38.867Z,22.65
2022-11-27T04:52:05.537Z,20.50
2022-11-27T04:54:32.234Z,17.33
2022-11-27T04:56:59.128Z,26.30
2022-11-27T04:59:25.823Z,19.85
2022-11-27T05:01:52.454Z,18.30
2022-11-27T05:04:19.079Z,20.40
2022-11-27T05:06:45.821Z,25.55
2022-11-27T05:09:12.581Z,17.13
2022-11-27T05:11:39.637Z,25.88
2022-11-27T05:14:15.231Z,22.48
2022-11-27T05:16:44.068Z,19.92
2022-11-27T05:19:11.597Z,21.13
2022-11-27T05:21:38.717Z,20.88
2022-11-27T05:24:06.197Z,19.27
2022-11-27T05:26:33.084Z,26.58
2022-11-27T05:29:00.141Z,19.55
2022-11-27T05:31:27.378Z,31.38
2022-11-27T05:33:54.007Z,20.15
2022-11-27T05:36:20.695Z,20.60
2022-11-27T05:38:47.477Z,24.08
2022-11-27T05:41:14.146Z,25.55
2022-11-27T05:43:41.851Z,19.60
2022-11-27T05:46:12.677Z,27.25
2022-11-27T05:48:39.595Z,25.13
2022-11-27T05:51:07.100Z,23.88
2022-11-27T05:53:34.508Z,19.85
2022-11-27T05:56:06.901Z,27.40
2022-11-27T05:58:33.797Z,23.17
2022-11-27T06:01:00.642Z,25.75
2022-11-27T06:03:27.314Z,28.23
2022-11-27T06:05:53.979Z,19.50
2022-11-27T06:08:21.147Z,25.50
2022-11-27T06:10:48.825Z,23.40
2022-11-27T06:13:15.933Z,24.38
2022-11-27T06:15:42.658Z,22.15
2022-11-27T06:18:10.833Z,24.63
2022-11-27T06:20:43.356Z,22.30
2022-11-27T06:23:10.523Z,23.38
2022-11-27T06:25:37.187Z,25.83
2022-11-27T06:28:04.007Z,24.45
2022-11-27T06:30:30.645Z,28.33
2022-11-27T06:32:57.548Z,22.83
2022-11-27T06:35:24.204Z,24.77
2022-11-27T06:37:50.908Z,25.05
2022-11-27T06:40:17.706Z,22.48
2022-11-27T06:42:44.345Z,20.52
2022-11-27T06:45:11.299Z,28.13
2022-11-27T06:47:37.918Z,27.83
2022-11-27T06:50:06.549Z,20.08
2022-11-27T06:52:37.279Z,24.42
2022-11-27T06:55:07.069Z,21.05
2022-11-27T06:57:33.780Z,25.92
2022-11-27T07:00:00.398Z,22.13
2022-11-27T07:02:27.074Z,23.40
2022-11-27T07:04:53.737Z,22.17
2022-11-27T07:07:20.434Z,22.33
2022-11-27T07:09:47.161Z,29.65
2022-11-27T07:12:13.909Z,21.35
2022-11-27T07:14:40.857Z,22.95
2022-11-27T07:17:07.622Z,22.90
2022-11-27T07:19:34.285Z,20.02
2022-11-27T07:22:00.950Z,26.48
2022-11-27T07:24:27.691Z,25.92
2022-11-27T07:26:54.296Z,16.73
2022-11-27T07:29:20.961Z,21.58
2022-11-27T07:31:47.894Z,18.63
2022-11-27T07:34:19.906Z,19.05
2022-11-27T07:36:48.295Z,21.85
2022-11-27T07:39:25.257Z,22.77
2022-11-27T07:42:23.093Z,21.65
2022-11-27T07:44:47.695Z,20.40
2022-11-27T07:47:14.537Z,22.42
2022-11-27T07:49:41.420Z,21.70
2022-11-27T07:52:08.115Z,18.98
2022-11-27T07:54:36.058Z,16.92
2022-11-27T07:57:02.706Z,20.33
2022-11-27T07:59:29.779Z,16.70
2022-11-27T08:01:56.609Z,20.30
2022-11-27T08:04:23.305Z,20.17
2022-11-27T08:06:50.171Z,17.55
2022-11-27T08:09:16.795Z,22.58
2022-11-27T08:11:43.442Z,23.92
2022-11-27T08:14:10.895Z,21.98
2022-11-27T08:16:37.597Z,22.63
2022-11-27T08:19:04.380Z,21.33
2022-11-27T08:21:32.754Z,20.65
2022-11-27T08:23:59.459Z,14.73
2022-11-27T08:26:27.711Z,19.80
2022-11-27T08:28:55.224Z,19.52
2022-11-27T08:31:22.409Z,26.80
2022-11-27T08:33:49.292Z,17.35
2022-11-27T08:36:18.372Z,16.73
2022-11-27T08:38:46.079Z,16.80
2022-11-27T08:41:12.832Z,19.58
2022-11-27T08:43:39.483Z,21.10
2022-11-27T08:46:07.654Z,19.73
2022-11-27T08:48:35.078Z,20.05
2022-11-27T08:51:09.034Z,17.67
2022-11-27T08:53:37.406Z,17.77
2022-11-27T08:56:16.659Z,26.00
2022-11-27T08:58:43.936Z,19.42
2022-11-27T09:01:26.184Z,17.23
2022-11-27T09:03:53.025Z,21.58
2022-11-27T09:06:25.165Z,19.15
2022-11-27T09:08:52.776Z,14.82
2022-11-27T09:11:20.167Z,16.20
2022-11-27T09:13:47.189Z,24.42
2022-11-27T09:16:16.831Z,14.40
2022-11-27T09:18:45.659Z,13.50
2022-11-27T09:21:13.883Z,18.65
2022-11-27T09:23:40.879Z,18.85
2022-11-27T09:26:13.413Z,20.75
2022-11-27T09:28:41.238Z,18.75
2022-11-27T09:31:10.943Z,14.85
2022-11-27T09:33:38.748Z,15.43
2022-11-27T09:36:07.396Z,17.00
2022-11-27T09:38:34.154Z,22.05
2022-11-27T09:41:18.518Z,17.90
2022-11-27T09:43:52.527Z,14.93
2022-11-27T09:46:39.582Z,20.00
2022-11-27T09:49:12.408Z,18.65
2022-11-27T09:52:04.008Z,22.60
2022-11-27T09:54:37.595Z,19.77
2022-11-27T09:57:05.452Z,19.83
2022-11-27T09:59:49.441Z,15.07
2022-11-27T10:02:27.404Z,20.67
2022-11-27T10:05:13.322Z,17.25
2022-11-27T10:08:07.142Z,19.20
2022-11-27T10:11:09.110Z,17.60
2022-11-27T10:13:55.681Z,19.35
2022-11-27T10:16:44.295Z,16.48
2022-11-27T10:19:35.755Z,14.73
2022-11-27T10:22:39.677Z,16.95
2022-11-27T10:25:19.054Z,11.50
2022-11-27T10:27:58.361Z,13.57
2022-11-27T10:30:27.075Z,17.80
2022-11-27T10:32:56.962Z,18.73
2022-11-27T10:35:26.694Z,14.90
2022-11-27T10:38:14.609Z,15.05
2022-11-27T10:41:47.620Z,14.15
2022-11-27T10:44:23.446Z,13.75
2022-11-27T10:46:52.859Z,12.07
2022-11-27T10:49:19.500Z,13.50
2022-11-27T10:51:46.127Z,18.70
2022-11-27T10:54:27.942Z,16.90
2022-11-27T10:59:48.388Z,14.95
2022-11-27T11:02:35.296Z,16.85
2022-11-27T11:05:32.882Z,16.73
2022-11-27T11:08:14.621Z,16.73
2022-11-27T11:10:45.437Z,12.35
2022-11-27T11:13:16.908Z,17.35
2022-11-27T11:15:54.394Z,16.08
2022-11-27T11:18:24.777Z,16.33
2022-11-27T11:20:54.695Z,17.70
2022-11-27T11:23:25.708Z,13.18
2022-11-27T11:25:55.663Z,14.77
2022-11-27T11:28:24.073Z,15.02
2022-11-27T11:31:03.668Z,14.70
2022-11-27T11:33:30.891Z,14.05
2022-11-27T11:36:06.977Z,13.20
2022-11-27T11:38:33.866Z,12.77
2022-11-27T11:41:07.263Z,17.23
2022-11-27T11:43:36.488Z,19.25
2022-11-27T11:46:22.698Z,14.20
2022-11-27T11:49:00.837Z,15.00
2022-11-27T11:51:51.657Z,12.77
2022-11-27T11:54:52.479Z,15.25
2022-11-27T11:57:41.157Z,15.05
2022-11-27T12:00:29.827Z,10.13
2022-11-27T12:03:18.082Z,9.15
2022-11-27T12:05:53.494Z,17.60
2022-11-27T12:08:20.085Z,18.85
2022-11-27T12:11:18.190Z,14.82
2022-11-27T12:14:12.422Z,13.75
2022-11-27T12:16:41.896Z,8.70
2022-11-27T12:19:26.335Z,10.82
2022-11-27T12:22:01.957Z,13.02
2022-11-27T12:24:47.198Z,11.45
2022-11-27T12:27:47.776Z,10.50
2022-11-27T12:30:22.052Z,13.32
2022-11-27T12:33:14.165Z,10.55
2022-11-27T12:35:59.051Z,10.02
2022-11-27T12:38:46.585Z,16.38
2022-11-27T12:41:42.892Z,10.77
2022-11-27T12:44:38.511Z,14.20
2022-11-27T12:47:11.810Z,14.70
2022-11-27T12:49:47.450Z,8.32
2022-11-27T12:52:21.788Z,12.73
2022-11-27T12:54:57.516Z,11.50
2022-11-27T12:57:36.325Z,12.95
2022-11-27T13:00:07.760Z,10.82
2022-11-27T13:02:44.103Z,15.10
2022-11-27T13:05:17.982Z,11.07
2022-11-27T13:08:05.732Z,14.10
2022-11-27T13:10:42.390Z,10.32
2022-11-27T13:13:15.916Z,11.95
2022-11-27T13:16:03.868Z,11.75
2022-11-27T13:18:36.654Z,12.23
2022-11-27T13:21:11.651Z,13.65
2022-11-27T13:23:38.357Z,13.00
2022-11-27T13:26:11.293Z,12.60
2022-11-27T13:28:43.379Z,10.02
2022-11-27T13:31:20.257Z,12.00
2022-11-27T13:33:48.365Z,15.35
2022-11-27T13:36:25.555Z,12.98
2022-11-27T13:39:00.267Z,12.13
2022-11-27T13:41:38.617Z,12.60
2022-11-27T13:44:19.158Z,12.10
2022-11-27T13:46:49.025Z,16.00
2022-11-27T13:49:27.893Z,13.43
2022-11-27T13:52:24.253Z,13.80
2022-11-27T13:54:56.577Z,12.55
2022-11-27T13:57:24.518Z,15.23
2022-11-27T14:00:09.628Z,19.10
2022-11-27T14:02:50.428Z,13.00
2022-11-27T14:05:19.809Z,13.57
2022-11-27T14:07:53.369Z,15.27
2022-11-27T14:10:24.145Z,14.38
2022-11-27T14:13:01.668Z,12.55
2022-11-27T14:15:30.568Z,15.32
2022-11-27T14:18:16.091Z,15.05
2022-11-27T14:20:50.047Z,11.90
2022-11-27T14:23:28.616Z,13.93
2022-11-27T14:26:08.540Z,14.55
2022-11-27T14:28:38.114Z,14.48
2022-11-27T14:31:05.558Z,15.45
2022-11-27T14:33:59.655Z,12.15
2022-11-27T14:36:28.088Z,11.73
2022-11-27T14:38:54.845Z,12.98
2022-11-27T14:41:23.965Z,11.63
2022-11-27T14:44:20.043Z,17.52
2022-11-27T14:46:47.390Z,16.70
2022-11-27T14:49:23.426Z,18.77
2022-11-27T14:51:51.207Z,11.85
2022-11-27T14:54:27.296Z,12.43
2022-11-27T14:56:54.340Z,14.85
2022-11-27T14:59:23.932Z,14.43
2022-11-27T15:02:10.237Z,11.43
2022-11-27T15:04:39.290Z,12.27
2022-11-27T15:07:14.012Z,10.63
2022-11-27T15:09:46.039Z,14.88
2022-11-27T15:12:21.963Z,12.88
2022-11-27T15:15:22.565Z,12.65
2022-11-27T15:17:53.261Z,12.73
2022-11-27T15:20:33.415Z,14.93
2022-11-27T15:23:00.494Z,11.23
2022-11-27T15:25:35.683Z,12.43
2022-11-27T15:28:02.752Z,13.75
2022-11-27T15:30:29.856Z,14.80
2022-11-27T15:32:56.758Z,10.32
2022-11-27T15:35:27.242Z,11.23
2022-11-27T15:37:56.973Z,12.35
2022-11-27T15:40:35.876Z,12.05
2022-11-27T15:43:06.156Z,11.82
2022-11-27T15:45:33.834Z,13.95
2022-11-27T15:48:01.729Z,11.88
2022-11-27T15:50:30.238Z,13.20
2022-11-27T15:52:57.127Z,17.40
2022-11-27T15:55:23.927Z,14.57
2022-11-27T15:57:50.588Z,14.40
2022-11-27T16:00:17.912Z,10.88
2022-11-27T16:02:44.618Z,11.65
2022-11-27T16:05:11.440Z,12.35
2022-11-27T16:07:38.205Z,16.02
2022-11-27T16:10:05.736Z,11.85
2022-11-27T16:12:32.956Z,12.73
2022-11-27T16:14:59.609Z,9.35
2022-11-27T16:17:26.336Z,11.23
2022-11-27T16:19:53.060Z,11.95
2022-11-27T16:22:19.775Z,13.18
2022-11-27T16:24:46.404Z,12.75
2022-11-27T16:27:13.117Z,10.57
2022-11-27T16:29:39.762Z,9.07
2022-11-27T16:32:06.530Z,10.55
2022-11-27T16:34:34.758Z,10.10
2022-11-27T16:37:01.641Z,15.10
2022-11-27T16:39:28.341Z,11.48
2022-11-27T16:41:55.147Z,7.78
2022-11-27T16:44:21.816Z,8.93
2022-11-27T16:46:50.323Z,8.93
2022-11-27T16:49:17.253Z,11.38
2022-11-27T16:51:44.328Z,9.40
2022-11-27T16:54:13.077Z,7.65
2022-11-27T16:56:41.832Z,11.85
2022-11-27T16:59:10.868Z,11.50
2022-11-27T17:01:40.847Z,13.57
2022-11-27T17:04:09.989Z,9.70
2022-11-27T17:06:38.771Z,16.25
2022-11-27T17:09:07.411Z,10.50
2022-11-27T17:11:35.891Z,10.55
2022-11-27T17:14:06.680Z,10.32
2022-11-27T17:16:35.165Z,8.68
2022-11-27T17:19:03.920Z,8.65
2022-11-27T17:21:33.832Z,10.77
2022-11-27T17:24:11.625Z,13.75
2022-11-27T17:26:43.918Z,10.73
2022-11-27T17:29:13.134Z,10.10
2022-11-27T17:31:40.066Z,19.73
2022-11-27T17:34:07.440Z,12.18
2022-11-27T17:36:37.158Z,9.73
2022-11-27T17:39:05.939Z,11.45
2022-11-27T17:41:32.600Z,10.25
2022-11-27T17:43:59.418Z,11.40
2022-11-27T17:46:28.300Z,11.27
2022-11-27T17:48:57.852Z,12.90
2022-11-27T17:51:25.015Z,12.23
2022-11-27T17:53:51.713Z,17.85
2022-11-27T17:56:20.512Z,16.40
2022-11-27T17:58:48.767Z,11.23
2022-11-27T18:01:18.294Z,10.32
2022-11-27T18:03:46.340Z,14.48
2022-11-27T18:06:16.498Z,10.95
2022-11-27T18:08:44.612Z,13.95
2022-11-27T18:11:23.529Z,12.68
2022-11-27T18:13:50.811Z,12.13
2022-11-27T18:16:31.274Z,14.07
2022-11-27T18:18:59.236Z,16.73
2022-11-27T18:21:30.231Z,14.25
2022-11-27T18:24:22.466Z,18.42
2022-11-27T18:29:30.953Z,15.70
2022-11-27T18:31:57.685Z,12.65
2022-11-27T18:34:24.356Z,19.00
2022-11-27T18:36:51.150Z,13.73
2022-11-27T18:39:18.080Z,11.43
2022-11-27T18:41:44.722Z,11.93
2022-11-27T18:44:11.782Z,18.42
2022-11-27T18:46:38.596Z,15.93
2022-11-27T18:49:05.945Z,12.90
2022-11-27T18:51:32.814Z,15.35
2022-11-27T18:53:59.596Z,11.55
2022-11-27T18:56:29.383Z,12.63
2022-11-27T18:59:02.013Z,13.30
2022-11-27T19:01:33.208Z,19.88
2022-11-27T19:04:03.948Z,13.80
2022-11-27T19:06:30.618Z,19.98
2022-11-27T19:08:58.735Z,12.60
2022-11-27T19:11:26.620Z,14.52
2022-11-27T19:13:55.678Z,14.75
2022-11-27T19:16:31.450Z,13.93
2022-11-27T19:18:59.414Z,15.13
2022-11-27T19:21:28.104Z,13.50
2022-11-27T19:23:58.261Z,11.82
2022-11-27T19:26:28.075Z,12.27
2022-11-27T19:28:57.429Z,16.73
2022-11-27T19:31:25.796Z,15.18
2022-11-27T19:34:01.222Z,12.77
2022-11-27T19:36:30.983Z,13.30
2022-11-27T19:39:13.852Z,10.55
2022-11-27T19:41:42.524Z,45.30
2022-11-27T19:44:11.517Z,18.27
2022-11-27T19:46:38.557Z,13.98
2022-11-27T19:49:07.871Z,12.63
2022-11-27T19:51:37.616Z,15.20
2022-11-27T19:54:09.942Z,17.13
2022-11-27T19:56:39.979Z,13.50
2022-11-27T19:59:07.728Z,13.98
2022-11-27T20:01:35.319Z,15.15
2022-11-27T20:04:03.860Z,15.55
2022-11-27T20:06:30.619Z,13.70
2022-11-27T20:09:03.279Z,16.05
2022-11-27T20:11:34.905Z,18.52
2022-11-27T20:14:05.411Z,16.65
2022-11-27T20:16:34.635Z,14.68
2022-11-27T20:19:05.176Z,13.77
2022-11-27T20:24:01.282Z,13.15
2022-11-27T20:26:29.006Z,15.18
2022-11-27T20:28:56.666Z,14.90
2022-11-27T20:31:29.957Z,13.55
2022-11-27T20:34:01.531Z,13.07
2022-11-27T20:36:29.902Z,15.18
2022-11-27T20:38:59.713Z,14.43
2022-11-27T20:41:27.795Z,12.10
2022-11-27T20:44:01.379Z,13.13
2022-11-27T20:46:30.296Z,14.70
2022-11-27T20:48:58.844Z,17.20
2022-11-27T20:51:33.276Z,14.27
2022-11-27T20:54:06.656Z,15.05
2022-11-27T20:56:34.077Z,13.45
2022-11-27T20:59:01.057Z,16.85
2022-11-27T21:01:33.662Z,11.77
2022-11-27T21:04:08.881Z,15.98
2022-11-27T21:06:43.220Z,14.02
2022-11-27T21:09:12.097Z,17.17
2022-11-27T21:11:39.134Z,13.75
2022-11-27T21:14:09.508Z,13.90
2022-11-27T21:16:41.774Z,15.52
2022-11-27T21:21:39.687Z,12.27
2022-11-27T21:24:07.030Z,12.88
2022-11-27T21:26:33.933Z,16.70
2022-11-27T21:29:01.300Z,13.65
2022-11-27T21:31:34.547Z,13.90
2022-11-27T21:34:06.006Z,13.70
2022-11-27T21:36:35.995Z,12.32
2022-11-27T21:39:06.265Z,11.75
2022-11-27T21:41:33.063Z,12.65
2022-11-27T21:44:01.675Z,11.20
2022-11-27T21:46:30.087Z,10.80
2022-11-27T21:48:59.744Z,14.02
2022-11-27T21:51:28.768Z,12.32
2022-11-27T21:53:58.483Z,14.05
2022-11-27T21:56:27.569Z,17.08
2022-11-27T21:58:54.196Z,10.80
2022-11-27T22:01:23.173Z,11.82
2022-11-27T22:03:56.517Z,13.07
2022-11-27T22:06:26.900Z,11.57
2022-11-27T22:08:55.958Z,11.43
2022-11-27T22:11:26.731Z,15.13
2022-11-27T22:14:02.972Z,11.02
2022-11-27T22:16:32.858Z,9.38
2022-11-27T22:19:00.577Z,11.30
2022-11-27T22:21:29.033Z,11.82
2022-11-27T22:23:56.908Z,12.63
2022-11-27T22:26:24.655Z,11.02
2022-11-27T22:28:52.142Z,11.27
2022-11-27T22:31:23.586Z,11.45
2022-11-27T22:33:50.335Z,11.60
2022-11-27T22:36:32.442Z,11.15
2022-11-27T22:39:01.970Z,12.68
2022-11-27T22:41:30.813Z,11.18
2022-11-27T22:44:00.193Z,12.60
2022-11-27T22:46:35.324Z,9.00
2022-11-27T22:49:05.339Z,11.45
2022-11-27T22:51:33.937Z,11.15
2022-11-27T22:54:02.053Z,9.82
2022-11-27T22:56:28.840Z,14.18
2022-11-27T22:59:17.408Z,12.90
2022-11-27T23:01:42.514Z,9.95
2022-11-27T23:04:09.377Z,9.55
2022-11-27T23:06:36.848Z,12.13
2022-11-27T23:09:03.948Z,10.73
2022-11-27T23:11:31.401Z,11.25
2022-11-27T23:13:59.257Z,15.70
2022-11-27T23:16:27.158Z,12.13
2022-11-27T23:18:53.898Z,9.93
2022-11-27T23:21:23.216Z,12.93
2022-11-27T23:23:50.765Z,11.13
2022-11-27T23:26:20.030Z,10.15
2022-11-27T23:28:49.100Z,13.93
2022-11-27T23:31:34.598Z,10.48
2022-11-27T23:34:05.125Z,12.07
2022-11-27T23:36:32.766Z,14.73
2022-11-27T23:39:01.013Z,12.40
2022-11-27T23:41:28.075Z,11.20
2022-11-27T23:43:55.623Z,12.48
2022-11-27T23:46:26.180Z,12.65
2022-11-27T23:48:57.709Z,15.75
2022-11-27T23:51:27.008Z,10.45
2022-11-27T23:53:53.905Z,10.73
2022-11-27T23:56:28.007Z,11.15
2022-11-27T23:58:55.856Z,12.82
